createdAt,value
2022-08-09T00:00:04.700Z,12.20
2022-08-09T00:04:06.221Z,12.52
2022-08-09T00:06:35.056Z,11.43
2022-08-09T00:09:37.909Z,10.23
2022-08-09T00:12:25.338Z,11.30
2022-08-09T00:15:58.111Z,9.07
2022-08-09T00:19:10.238Z,12.98
2022-08-09T00:22:20.957Z,10.68
2022-08-09T00:25:12.660Z,13.48
2022-08-09T00:27:56.295Z,11.32
2022-08-09T00:31:00.545Z,10.15
2022-08-09T00:33:52.123Z,11.27
2022-08-09T00:37:11.324Z,8.65
2022-08-09T00:46:57.672Z,6.78
2022-08-09T00:50:53.850Z,10.55
2022-08-09T00:56:28.462Z,8.57
2022-08-09T00:59:20.223Z,11.15
2022-08-09T01:02:10.107Z,9.80
2022-08-09T01:05:50.777Z,13.82
2022-08-09T01:09:10.911Z,12.45
2022-08-09T01:12:12.793Z,13.60
2022-08-09T01:14:55.067Z,10.63
2022-08-09T01:18:01.103Z,12.18
2022-08-09T01:21:26.116Z,11.57
2022-08-09T01:24:52.278Z,9.85
2022-08-09T01:27:29.190Z,16.48
2022-08-09T01:30:02.401Z,14.95
2022-08-09T01:32:43.938Z,11.00
2022-08-09T01:35:44.758Z,9.38
2022-08-09T01:38:33.986Z,9.23
2022-08-09T01:41:55.598Z,9.45
2022-08-09T01:47:44.815Z,13.02
2022-08-09T01:51:03.740Z,10.23
2022-08-09T01:57:27.524Z,9.93
2022-08-09T02:00:35.493Z,7.05
2022-08-09T02:03:39.822Z,8.43
2022-08-09T02:06:58.824Z,14.30
2022-08-09T02:10:04.167Z,18.38
2022-08-09T02:12:35.145Z,13.55
2022-08-09T02:15:06.398Z,21.00
2022-08-09T02:18:01.498Z,17.63
2022-08-09T02:20:32.681Z,15.95
2022-08-09T02:23:10.675Z,19.85
2022-08-09T02:25:52.462Z,19.42
2022-08-09T02:28:41.668Z,12.40
2022-08-09T02:31:26.090Z,17.15
2022-08-09T02:34:07.120Z,18.92
2022-08-09T02:36:46.766Z,13.48
2022-08-09T02:39:39.740Z,12.00
2022-08-09T02:42:16.798Z,13.48
2022-08-09T02:44:52.652Z,14.35
2022-08-09T02:47:23.389Z,11.70
2022-08-09T02:50:02.404Z,10.10
2022-08-09T02:52:45.008Z,11.00
2022-08-09T02:55:20.892Z,7.72
2022-08-09T02:58:32.094Z,12.05
2022-08-09T03:00:57.888Z,9.43
2022-08-09T03:03:37.174Z,10.05
2022-08-09T03:06:15.850Z,7.13
2022-08-09T03:08:49.219Z,8.98
2022-08-09T03:12:04.442Z,10.13
2022-08-09T03:14:08.063Z,6.45
2022-08-09T03:16:44.728Z,7.85
2022-08-09T03:19:16.674Z,6.47
2022-08-09T03:22:03.220Z,11.43
2022-08-09T03:24:31.717Z,12.05
2022-08-09T03:27:13.134Z,8.30
2022-08-09T03:29:58.017Z,9.48
2022-08-09T03:32:37.389Z,7.18
2022-08-09T03:35:14.978Z,8.98
2022-08-09T03:38:10.589Z,8.05
2022-08-09T03:40:48.220Z,9.60
2022-08-09T03:43:19.005Z,8.88
2022-08-09T03:46:04.228Z,7.57
2022-08-09T03:48:37.444Z,14.20
2022-08-09T03:51:55.814Z,9.45
2022-08-09T03:54:15.363Z,10.40
2022-08-09T03:56:46.708Z,9.10
2022-08-09T03:59:20.805Z,12.07
2022-08-09T04:01:56.595Z,8.70
2022-08-09T04:04:36.331Z,18.75
2022-08-09T04:07:06.485Z,10.23
2022-08-09T04:09:47.597Z,8.02
2022-08-09T04:12:40.656Z,8.35
2022-08-09T04:15:11.697Z,8.38
2022-08-09T04:17:57.817Z,7.20
2022-08-09T04:20:25.534Z,8.63
2022-08-09T04:23:16.800Z,7.93
2022-08-09T04:25:51.601Z,6.65
2022-08-09T04:28:30.772Z,5.72
2022-08-09T04:31:08.270Z,7.15
2022-08-09T04:33:52.713Z,6.53
2022-08-09T04:36:27.708Z,8.77
2022-08-09T04:39:03.296Z,7.07
2022-08-09T04:41:43.841Z,7.65
2022-08-09T04:44:14.781Z,9.00
2022-08-09T04:46:59.580Z,6.57
2022-08-09T04:49:53.155Z,7.38
2022-08-09T04:52:28.477Z,6.25
2022-08-09T04:54:59.328Z,7.40
2022-08-09T04:57:58.415Z,13.85
2022-08-09T05:00:31.782Z,9.85
2022-08-09T05:03:30.328Z,8.23
2022-08-09T05:06:04.432Z,10.68
2022-08-09T05:08:35.281Z,6.75
2022-08-09T05:11:03.866Z,9.05
2022-08-09T05:13:38.860Z,12.02
2022-08-09T05:16:16.237Z,8.67
2022-08-09T05:18:55.520Z,8.93
2022-08-09T05:21:30.348Z,14.45
2022-08-09T05:24:02.140Z,15.02
2022-08-09T05:26:36.565Z,12.10
2022-08-09T05:29:05.150Z,16.45
2022-08-09T05:31:37.123Z,14.48
2022-08-09T05:34:16.975Z,7.70
2022-08-09T05:36:47.137Z,13.13
2022-08-09T05:39:28.992Z,11.57
2022-08-09T05:44:34.995Z,16.75
2022-08-09T05:47:05.641Z,15.45
2022-08-09T05:50:31.135Z,21.98
2022-08-09T05:52:22.247Z,11.90
2022-08-09T05:54:52.608Z,15.45
2022-08-09T05:57:25.182Z,10.77
2022-08-09T06:00:11.579Z,6.60
2022-08-09T06:02:46.508Z,5.75
2022-08-09T06:05:14.178Z,10.55
2022-08-09T06:07:49.608Z,17.02
2022-08-09T06:10:37.943Z,7.85
2022-08-09T06:15:40.873Z,15.95
2022-08-09T06:18:09.086Z,16.23
2022-08-09T06:20:39.147Z,25.02
2022-08-09T06:23:06.277Z,12.70
2022-08-09T06:25:39.169Z,9.75
2022-08-09T06:28:10.482Z,31.38
2022-08-09T06:30:43.416Z,9.93
2022-08-09T06:33:30.345Z,8.77
2022-08-09T06:35:59.277Z,10.27
2022-08-09T06:38:32.196Z,8.63
2022-08-09T06:41:18.060Z,8.07
2022-08-09T06:43:48.335Z,9.43
2022-08-09T06:46:39.134Z,11.10
2022-08-09T06:49:04.838Z,8.13
2022-08-09T06:51:39.828Z,7.60
2022-08-09T06:54:09.143Z,7.05
2022-08-09T06:56:40.138Z,7.53
2022-08-09T07:00:51.563Z,7.22
2022-08-09T07:02:04.447Z,7.32
2022-08-09T07:04:33.081Z,9.75
2022-08-09T07:07:04.768Z,14.43
2022-08-09T07:09:53.634Z,16.88
2022-08-09T07:12:20.406Z,11.32
2022-08-09T07:14:50.714Z,5.97
2022-08-09T07:17:22.031Z,9.63
2022-08-09T07:19:51.035Z,6.25
2022-08-09T07:22:34.197Z,7.68
2022-08-09T07:25:05.286Z,11.40
2022-08-09T07:27:42.606Z,11.40
2022-08-09T07:30:14.899Z,7.30
2022-08-09T07:32:43.115Z,8.73
2022-08-09T07:35:14.856Z,13.48
2022-08-09T07:37:45.830Z,6.75
2022-08-09T07:40:26.831Z,4.43
2022-08-09T07:42:59.165Z,8.37
2022-08-09T07:45:37.462Z,9.27
2022-08-09T07:48:25.868Z,8.82
2022-08-09T07:51:09.014Z,3.92
2022-08-09T07:54:06.725Z,6.38
2022-08-09T07:56:38.749Z,8.80
2022-08-09T07:59:15.772Z,10.40
2022-08-09T08:01:53.722Z,9.52
2022-08-09T08:04:25.495Z,6.85
2022-08-09T08:07:00.085Z,4.13
2022-08-09T08:09:45.758Z,6.38
2022-08-09T08:12:27.356Z,7.20
2022-08-09T08:14:57.215Z,8.10
2022-08-09T08:17:52.217Z,9.80
2022-08-09T08:20:15.029Z,3.90
2022-08-09T08:22:42.111Z,3.88
2022-08-09T08:25:13.614Z,9.57
2022-08-09T08:27:42.859Z,6.93
2022-08-09T08:30:13.728Z,5.10
2022-08-09T08:32:52.425Z,7.07
2022-08-09T08:35:22.270Z,5.25
2022-08-09T08:38:04.691Z,4.30
2022-08-09T08:40:38.862Z,8.10
2022-08-09T08:43:13.161Z,2.55
2022-08-09T08:46:00.145Z,5.25
2022-08-09T08:48:39.758Z,4.10
2022-08-09T08:51:18.972Z,9.70
2022-08-09T08:54:03.160Z,9.57
2022-08-09T08:56:35.654Z,5.45
2022-08-09T08:59:19.446Z,5.22
2022-08-09T09:01:52.701Z,3.90
2022-08-09T09:04:31.321Z,4.90
2022-08-09T09:07:11.178Z,2.00
2022-08-09T09:10:02.139Z,5.47
2022-08-09T09:12:36.126Z,5.20
2022-08-09T09:15:06.374Z,4.32
2022-08-09T09:17:48.349Z,3.60
2022-08-09T09:20:20.580Z,4.72
2022-08-09T09:23:01.707Z,4.10
2022-08-09T09:26:01.500Z,5.40
2022-08-09T09:29:02.092Z,3.53
2022-08-09T09:32:04.491Z,4.65
2022-08-09T09:34:15.297Z,8.88
2022-08-09T09:38:27.681Z,10.70
2022-08-09T09:41:33.272Z,4.10
2022-08-09T09:47:56.185Z,4.53
2022-08-09T09:50:57.095Z,4.47
2022-08-09T09:53:57.628Z,6.68
2022-08-09T09:58:02.834Z,5.30
2022-08-09T10:00:36.122Z,3.47
2022-08-09T10:04:03.249Z,4.32
2022-08-09T10:07:18.395Z,6.88
2022-08-09T10:10:55.637Z,4.72
2022-08-09T10:17:58.421Z,7.55
2022-08-09T10:24:00.462Z,12.65
2022-08-09T10:27:17.238Z,5.63
2022-08-09T10:34:33.110Z,3.45
2022-08-09T10:37:04.884Z,3.78
2022-08-09T10:39:49.359Z,4.30
2022-08-09T10:42:18.519Z,4.28
2022-08-09T10:44:54.462Z,5.80
2022-08-09T10:48:13.382Z,3.97
2022-08-09T10:51:06.745Z,6.43
2022-08-09T10:53:59.691Z,10.70
2022-08-09T10:56:38.688Z,5.35
2022-08-09T10:59:31.030Z,4.25
2022-08-09T11:03:15.455Z,4.85
2022-08-09T11:05:24.656Z,4.40
2022-08-09T11:45:08.649Z,6.80
2022-08-09T11:48:27.225Z,4.18
2022-08-09T11:54:34.777Z,6.95
2022-08-09T11:57:47.480Z,4.30
2022-08-09T12:00:37.706Z,6.63
2022-08-09T12:03:55.540Z,7.68
2022-08-09T12:06:32.609Z,5.47
2022-08-09T12:09:19.584Z,4.60
2022-08-09T12:12:13.042Z,4.68
2022-08-09T12:15:07.302Z,4.22
2022-08-09T12:17:43.655Z,2.55
2022-08-09T12:20:24.944Z,4.75
2022-08-09T12:23:03.652Z,3.63
2022-08-09T12:25:37.279Z,5.85
2022-08-09T12:31:59.434Z,4.45
2022-08-09T12:35:19.472Z,5.35
2022-08-09T12:45:34.104Z,5.45
2022-08-09T12:48:27.841Z,4.85
2022-08-09T12:51:03.986Z,7.10
2022-08-09T12:56:12.832Z,5.28
2022-08-09T12:58:07.099Z,4.43
2022-08-09T13:04:41.721Z,6.75
2022-08-09T13:07:51.014Z,5.68
2022-08-09T13:10:24.105Z,5.50
2022-08-09T13:14:42.858Z,5.93
2022-08-09T13:18:29.726Z,3.75
2022-08-09T13:22:35.953Z,6.35
2022-08-09T13:24:53.541Z,3.80
2022-08-09T13:32:16.179Z,3.38
2022-08-09T13:42:32.986Z,3.58
2022-08-09T13:46:42.471Z,5.32
2022-08-09T13:52:29.562Z,4.47
2022-08-09T13:55:28.925Z,7.03
2022-08-09T13:58:03.024Z,4.18
2022-08-09T14:00:37.949Z,7.93
2022-08-09T14:03:58.094Z,4.72
2022-08-09T14:06:02.660Z,5.53
2022-08-09T14:08:31.589Z,5.03
2022-08-09T14:10:59.679Z,3.53
2022-08-09T14:14:22.229Z,5.57
2022-08-09T14:16:28.131Z,5.47
2022-08-09T14:18:57.232Z,4.20
2022-08-09T14:21:29.237Z,4.00
2022-08-09T14:24:00.966Z,3.03
2022-08-09T14:29:46.394Z,4.55
2022-08-09T14:31:57.522Z,3.45
2022-08-09T14:34:30.966Z,6.32
2022-08-09T14:37:09.010Z,5.28
2022-08-09T14:39:45.395Z,6.28
2022-08-09T14:42:40.690Z,8.07
2022-08-09T14:46:46.317Z,6.97
2022-08-09T14:48:02.505Z,4.63
2022-08-09T14:50:52.132Z,8.02
2022-08-09T14:53:45.537Z,7.33
2022-08-09T14:56:26.789Z,5.20
2022-08-09T14:59:24.613Z,3.03
2022-08-09T15:02:03.408Z,4.45
2022-08-09T15:04:33.065Z,3.60
2022-08-09T15:07:11.248Z,5.60
2022-08-09T15:10:10.532Z,3.95
2022-08-09T15:12:35.954Z,10.77
2022-08-09T15:15:11.351Z,4.97
2022-08-09T15:17:51.515Z,2.25
2022-08-09T15:22:00.952Z,2.95
2022-08-09T15:24:03.598Z,3.45
2022-08-09T15:26:02.100Z,5.85
2022-08-09T15:28:35.453Z,3.60
2022-08-09T15:31:18.853Z,4.47
2022-08-09T15:37:11.698Z,2.58
2022-08-09T15:40:00.239Z,6.07
2022-08-09T15:42:53.297Z,4.05
2022-08-09T15:46:07.510Z,5.53
2022-08-09T15:49:22.778Z,3.47
2022-08-09T15:55:54.036Z,3.95
2022-08-09T16:02:13.568Z,6.55
2022-08-09T16:05:06.720Z,7.50
2022-08-09T16:07:46.033Z,2.63
2022-08-09T16:10:56.257Z,3.80
2022-08-09T16:14:03.978Z,2.90
2022-08-09T16:16:28.199Z,5.95
2022-08-09T16:19:02.840Z,3.60
2022-08-09T16:32:18.805Z,2.67
2022-08-09T16:50:31.645Z,3.92
2022-08-09T17:15:59.711Z,5.28
2022-08-09T18:05:55.542Z,15.30
2022-08-09T18:13:39.022Z,4.32
2022-08-09T18:41:34.398Z,6.28
2022-08-09T19:17:04.202Z,6.95
2022-08-09T19:19:50.586Z,4.47
2022-08-09T19:22:26.390Z,6.97
2022-08-09T19:25:11.835Z,6.68
2022-08-09T19:27:51.056Z,10.48
2022-08-09T19:33:38.343Z,10.20
2022-08-09T19:36:11.813Z,8.73
2022-08-09T19:38:54.593Z,6.13
2022-08-09T19:41:33.190Z,5.60
2022-08-09T19:44:17.739Z,5.53
2022-08-09T19:47:23.537Z,11.15
2022-08-09T19:50:09.845Z,15.38
2022-08-09T19:52:49.638Z,11.30
2022-08-09T19:56:03.261Z,13.40
2022-08-09T19:58:35.165Z,10.25
2022-08-09T20:01:12.313Z,9.15
2022-08-09T20:04:10.892Z,7.68
2022-08-09T20:06:58.672Z,8.18
2022-08-09T20:09:44.493Z,8.18
2022-08-09T20:12:30.169Z,6.75
2022-08-09T20:16:39.104Z,10.38
2022-08-09T20:19:41.882Z,5.65
2022-08-09T20:22:04.772Z,8.43
2022-08-09T20:27:43.416Z,7.22
2022-08-09T20:30:46.485Z,10.48
2022-08-09T20:33:27.930Z,8.68
2022-08-09T20:36:29.871Z,10.27
2022-08-09T20:40:13.746Z,7.20
2022-08-09T20:42:23.931Z,12.88
2022-08-09T20:45:59.384Z,11.10
2022-08-09T20:48:41.973Z,7.03
2022-08-09T20:51:40.935Z,7.60
2022-08-09T20:54:32.788Z,10.35
2022-08-09T20:57:05.400Z,11.05
2022-08-09T21:00:20.333Z,6.82
2022-08-09T21:02:55.434Z,9.68
2022-08-09T21:06:15.807Z,9.57
2022-08-09T21:18:20.929Z,8.35
2022-08-09T21:20:54.605Z,7.40
2022-08-09T21:23:50.939Z,10.48
2022-08-09T21:26:24.079Z,12.52
2022-08-09T21:29:01.391Z,8.20
2022-08-09T21:31:49.102Z,6.63
2022-08-09T21:34:28.586Z,8.65
2022-08-09T21:36:56.775Z,11.18
2022-08-09T21:39:41.693Z,6.95
2022-08-09T21:42:17.886Z,5.35
2022-08-09T21:45:07.958Z,5.32
2022-08-09T21:47:54.019Z,14.55
2022-08-09T21:50:38.630Z,6.10
2022-08-09T21:53:15.732Z,8.15
2022-08-09T21:55:51.126Z,8.82
2022-08-09T21:58:18.522Z,8.73
2022-08-09T22:00:48.734Z,7.30
2022-08-09T22:03:25.498Z,8.07
2022-08-09T22:05:54.934Z,6.60
2022-08-09T22:08:25.624Z,7.65
2022-08-09T22:11:50.075Z,9.95
2022-08-09T22:13:45.750Z,11.40
2022-08-09T22:16:12.966Z,8.80
2022-08-09T22:18:53.262Z,11.32
2022-08-09T22:21:45.025Z,9.25
2022-08-09T22:24:16.973Z,9.48
2022-08-09T22:26:55.724Z,8.88
2022-08-09T23:55:22.731Z,9.93
2022-08-09T23:58:56.257Z,8.30
